sensor_id;sensor_type;location;lat;lon;timestamp;pressure;altitude;pressure_sealevel;temperature;humidity
31911;BME280;18457;52.432;16.914;2023-03-29T00:01:54;101129.80;;;0.50;67.83
31911;BME280;18457;52.432;16.914;2023-03-29T00:04:26;101131.05;;;0.50;68.41
31911;BME280;18457;52.432;16.914;2023-03-29T00:06:58;101132.33;;;0.51;67.82
31911;BME280;18457;52.432;16.914;2023-03-29T00:09:34;101131.86;;;0.60;65.89
31911;BME280;18457;52.432;16.914;2023-03-29T00:12:07;101124.75;;;0.67;60.52
31911;BME280;18457;52.432;16.914;2023-03-29T00:14:40;101120.77;;;0.70;58.27
31911;BME280;18457;52.432;16.914;2023-03-29T00:17:12;101125.82;;;0.80;57.55
31911;BME280;18457;52.432;16.914;2023-03-29T00:19:45;101124.35;;;0.85;56.87
31911;BME280;18457;52.432;16.914;2023-03-29T00:22:15;101126.25;;;0.89;56.38
31911;BME280;18457;52.432;16.914;2023-03-29T00:24:47;101128.81;;;0.93;56.25
31911;BME280;18457;52.432;16.914;2023-03-29T00:27:19;101127.92;;;0.92;56.31
31911;BME280;18457;52.432;16.914;2023-03-29T00:29:51;101126.48;;;0.92;56.54
31911;BME280;18457;52.432;16.914;2023-03-29T00:32:23;101118.25;;;0.96;56.63
31911;BME280;18457;52.432;16.914;2023-03-29T00:34:55;101112.72;;;0.89;56.58
31911;BME280;18457;52.432;16.914;2023-03-29T00:37:27;101120.32;;;0.94;56.52
31911;BME280;18457;52.432;16.914;2023-03-29T00:40:01;101119.23;;;0.93;56.70
31911;BME280;18457;52.432;16.914;2023-03-29T00:42:35;101122.43;;;0.93;56.84
31911;BME280;18457;52.432;16.914;2023-03-29T00:45:17;101118.64;;;0.91;57.03
31911;BME280;18457;52.432;16.914;2023-03-29T00:47:52;101117.04;;;0.91;57.42
31911;BME280;18457;52.432;16.914;2023-03-29T00:50:29;101111.41;;;0.86;58.27
31911;BME280;18457;52.432;16.914;2023-03-29T00:53:07;101109.55;;;0.83;58.80
31911;BME280;18457;52.432;16.914;2023-03-29T00:55:43;101105.55;;;0.86;58.30
31911;BME280;18457;52.432;16.914;2023-03-29T00:58:20;101099.34;;;0.80;59.61
31911;BME280;18457;52.432;16.914;2023-03-29T01:00:58;101092.10;;;0.75;60.52
31911;BME280;18457;52.432;16.914;2023-03-29T01:03:36;101095.06;;;0.74;62.58
31911;BME280;18457;52.432;16.914;2023-03-29T01:06:14;101095.14;;;0.69;63.60
31911;BME280;18457;52.432;16.914;2023-03-29T01:08:52;101088.80;;;0.66;63.66
31911;BME280;18457;52.432;16.914;2023-03-29T01:11:29;101086.38;;;0.61;63.50
31911;BME280;18457;52.432;16.914;2023-03-29T01:14:05;101084.26;;;0.55;64.90
31911;BME280;18457;52.432;16.914;2023-03-29T01:16:39;101076.52;;;0.51;65.13
31911;BME280;18457;52.432;16.914;2023-03-29T01:19:14;101076.98;;;0.49;66.59
31911;BME280;18457;52.432;16.914;2023-03-29T01:21:50;101075.20;;;0.42;66.70
31911;BME280;18457;52.432;16.914;2023-03-29T01:24:40;101075.30;;;0.40;66.50
31911;BME280;18457;52.432;16.914;2023-03-29T01:27:18;101080.00;;;0.37;66.26
31911;BME280;18457;52.432;16.914;2023-03-29T01:29:55;101078.73;;;0.29;67.69
31911;BME280;18457;52.432;16.914;2023-03-29T01:32:32;101079.71;;;0.20;67.07
31911;BME280;18457;52.432;16.914;2023-03-29T01:35:10;101077.63;;;0.15;66.97
31911;BME280;18457;52.432;16.914;2023-03-29T01:37:49;101074.65;;;0.11;66.85
31911;BME280;18457;52.432;16.914;2023-03-29T01:40:26;101070.67;;;0.21;67.00
31911;BME280;18457;52.432;16.914;2023-03-29T01:43:05;101069.79;;;0.27;67.53
31911;BME280;18457;52.432;16.914;2023-03-29T01:45:44;101072.09;;;0.32;67.52
31911;BME280;18457;52.432;16.914;2023-03-29T01:48:22;101062.92;;;0.35;68.79
31911;BME280;18457;52.432;16.914;2023-03-29T01:50:59;101061.26;;;0.39;69.40
31911;BME280;18457;52.432;16.914;2023-03-29T01:53:39;101063.95;;;0.40;69.80
31911;BME280;18457;52.432;16.914;2023-03-29T01:56:15;101058.20;;;0.38;69.65
31911;BME280;18457;52.432;16.914;2023-03-29T01:58:54;101059.16;;;0.34;69.21
31911;BME280;18457;52.432;16.914;2023-03-29T02:01:31;101057.58;;;0.34;69.55
31911;BME280;18457;52.432;16.914;2023-03-29T02:04:11;101048.10;;;0.33;69.63
31911;BME280;18457;52.432;16.914;2023-03-29T02:06:44;101049.88;;;0.26;69.99
31911;BME280;18457;52.432;16.914;2023-03-29T02:09:18;101048.81;;;0.20;69.16
31911;BME280;18457;52.432;16.914;2023-03-29T02:11:51;101046.63;;;0.25;68.34
31911;BME280;18457;52.432;16.914;2023-03-29T02:14:25;101043.25;;;0.31;67.22
31911;BME280;18457;52.432;16.914;2023-03-29T02:17:07;101044.61;;;0.35;66.99
31911;BME280;18457;52.432;16.914;2023-03-29T02:19:40;101044.57;;;0.34;68.27
31911;BME280;18457;52.432;16.914;2023-03-29T02:22:12;101046.16;;;0.33;67.02
31911;BME280;18457;52.432;16.914;2023-03-29T02:24:48;101040.55;;;0.36;66.49
31911;BME280;18457;52.432;16.914;2023-03-29T02:27:23;101038.02;;;0.34;67.04
31911;BME280;18457;52.432;16.914;2023-03-29T02:29:55;101035.58;;;0.30;67.45
31911;BME280;18457;52.432;16.914;2023-03-29T02:32:31;101032.59;;;0.31;67.65
31911;BME280;18457;52.432;16.914;2023-03-29T02:35:08;101032.14;;;0.21;67.92
31911;BME280;18457;52.432;16.914;2023-03-29T02:37:44;101031.74;;;0.20;67.11
31911;BME280;18457;52.432;16.914;2023-03-29T02:40:19;101032.89;;;0.16;67.52
31911;BME280;18457;52.432;16.914;2023-03-29T02:42:54;101030.20;;;0.21;67.74
31911;BME280;18457;52.432;16.914;2023-03-29T02:45:28;101027.19;;;0.22;68.09
31911;BME280;18457;52.432;16.914;2023-03-29T02:48:03;101025.04;;;0.21;68.28
31911;BME280;18457;52.432;16.914;2023-03-29T02:50:38;101022.55;;;0.21;69.08
31911;BME280;18457;52.432;16.914;2023-03-29T02:53:14;101016.32;;;0.21;68.67
31911;BME280;18457;52.432;16.914;2023-03-29T02:55:48;101010.95;;;0.19;68.35
31911;BME280;18457;52.432;16.914;2023-03-29T02:58:18;101000.49;;;0.14;68.31
31911;BME280;18457;52.432;16.914;2023-03-29T03:00:59;100999.23;;;0.13;69.59
31911;BME280;18457;52.432;16.914;2023-03-29T03:03:33;101002.77;;;0.12;69.46
31911;BME280;18457;52.432;16.914;2023-03-29T03:06:06;100998.45;;;0.10;69.14
31911;BME280;18457;52.432;16.914;2023-03-29T03:08:36;100992.13;;;0.06;69.45
31911;BME280;18457;52.432;16.914;2023-03-29T03:11:08;101002.81;;;0.07;69.28
31911;BME280;18457;52.432;16.914;2023-03-29T03:13:41;100994.02;;;0.04;69.50
31911;BME280;18457;52.432;16.914;2023-03-29T03:16:13;100992.35;;;-0.04;70.04
31911;BME280;18457;52.432;16.914;2023-03-29T03:18:45;100994.22;;;-0.08;70.21
31911;BME280;18457;52.432;16.914;2023-03-29T03:21:18;100989.50;;;0.01;69.55
31911;BME280;18457;52.432;16.914;2023-03-29T03:23:50;100993.77;;;0.01;69.33
31911;BME280;18457;52.432;16.914;2023-03-29T03:26:23;100991.96;;;0.01;69.11
31911;BME280;18457;52.432;16.914;2023-03-29T03:28:59;100993.74;;;-0.06;69.47
31911;BME280;18457;52.432;16.914;2023-03-29T03:31:50;100990.50;;;-0.01;69.53
31911;BME280;18457;52.432;16.914;2023-03-29T03:34:53;100987.55;;;0.01;68.77
31911;BME280;18457;52.432;16.914;2023-03-29T03:37:29;100987.46;;;-0.02;69.12
31911;BME280;18457;52.432;16.914;2023-03-29T03:40:01;100983.31;;;0.02;68.97
31911;BME280;18457;52.432;16.914;2023-03-29T03:42:39;100982.67;;;0.05;67.85
31911;BME280;18457;52.432;16.914;2023-03-29T03:45:13;100981.36;;;0.03;67.58
31911;BME280;18457;52.432;16.914;2023-03-29T03:48:02;100984.85;;;0.06;66.40
31911;BME280;18457;52.432;16.914;2023-03-29T03:50:50;100981.42;;;0.11;64.83
31911;BME280;18457;52.432;16.914;2023-03-29T03:53:24;100980.42;;;0.14;64.91
31911;BME280;18457;52.432;16.914;2023-03-29T03:56:29;100979.23;;;0.16;64.93
31911;BME280;18457;52.432;16.914;2023-03-29T03:59:07;100978.73;;;0.17;64.53
31911;BME280;18457;52.432;16.914;2023-03-29T04:01:47;100977.02;;;0.19;64.51
31911;BME280;18457;52.432;16.914;2023-03-29T04:04:22;100983.93;;;0.19;65.15
31911;BME280;18457;52.432;16.914;2023-03-29T04:07:10;100978.08;;;0.19;65.21
31911;BME280;18457;52.432;16.914;2023-03-29T04:10:03;100978.70;;;0.22;64.84
31911;BME280;18457;52.432;16.914;2023-03-29T04:12:39;100977.36;;;0.18;64.04
31911;BME280;18457;52.432;16.914;2023-03-29T04:15:12;100976.83;;;0.18;63.86
31911;BME280;18457;52.432;16.914;2023-03-29T04:17:48;100976.12;;;0.18;63.10
31911;BME280;18457;52.432;16.914;2023-03-29T04:20:27;100977.37;;;0.19;62.84
31911;BME280;18457;52.432;16.914;2023-03-29T04:22:59;100979.30;;;0.18;62.73
31911;BME280;18457;52.432;16.914;2023-03-29T04:25:31;100980.86;;;0.17;62.61
31911;BME280;18457;52.432;16.914;2023-03-29T04:28:22;100977.17;;;0.18;62.60
31911;BME280;18457;52.432;16.914;2023-03-29T04:31:09;100974.56;;;0.20;62.27
31911;BME280;18457;52.432;16.914;2023-03-29T04:33:54;100973.17;;;0.22;62.17
31911;BME280;18457;52.432;16.914;2023-03-29T04:36:30;100973.00;;;0.21;62.07
31911;BME280;18457;52.432;16.914;2023-03-29T04:39:02;100975.55;;;0.23;62.15
31911;BME280;18457;52.432;16.914;2023-03-29T04:41:34;100974.91;;;0.26;62.08
31911;BME280;18457;52.432;16.914;2023-03-29T04:44:16;100973.60;;;0.30;61.98
31911;BME280;18457;52.432;16.914;2023-03-29T04:46:47;100969.56;;;0.26;61.76
31911;BME280;18457;52.432;16.914;2023-03-29T04:49:38;100967.30;;;0.28;61.00
31911;BME280;18457;52.432;16.914;2023-03-29T04:52:14;100960.52;;;0.26;61.15
31911;BME280;18457;52.432;16.914;2023-03-29T04:54:46;100957.98;;;0.32;60.56
31911;BME280;18457;52.432;16.914;2023-03-29T04:57:28;100958.39;;;0.34;60.85
31911;BME280;18457;52.432;16.914;2023-03-29T05:00:11;100956.09;;;0.34;60.91
31911;BME280;18457;52.432;16.914;2023-03-29T05:03:03;100955.84;;;0.38;60.90
31911;BME280;18457;52.432;16.914;2023-03-29T05:05:39;100948.52;;;0.43;61.18
31911;BME280;18457;52.432;16.914;2023-03-29T05:08:11;100950.39;;;0.47;61.26
31911;BME280;18457;52.432;16.914;2023-03-29T05:11:07;100944.77;;;0.50;61.13
31911;BME280;18457;52.432;16.914;2023-03-29T05:13:40;100940.38;;;0.51;61.18
31911;BME280;18457;52.432;16.914;2023-03-29T05:16:12;100932.95;;;0.53;61.34
31911;BME280;18457;52.432;16.914;2023-03-29T05:18:46;100934.29;;;0.57;61.14
31911;BME280;18457;52.432;16.914;2023-03-29T05:21:18;100929.95;;;0.61;61.39
31911;BME280;18457;52.432;16.914;2023-03-29T05:23:50;100930.06;;;0.65;61.30
31911;BME280;18457;52.432;16.914;2023-03-29T05:27:00;100926.92;;;0.68;60.85
31911;BME280;18457;52.432;16.914;2023-03-29T05:29:35;100924.90;;;0.73;60.91
31911;BME280;18457;52.432;16.914;2023-03-29T05:32:29;100922.71;;;0.78;61.06
31911;BME280;18457;52.432;16.914;2023-03-29T05:35:01;100925.87;;;0.83;60.90
31911;BME280;18457;52.432;16.914;2023-03-29T05:37:35;100930.42;;;0.88;60.64
31911;BME280;18457;52.432;16.914;2023-03-29T05:40:08;100929.26;;;0.92;60.61
31911;BME280;18457;52.432;16.914;2023-03-29T05:43:08;100932.39;;;0.97;60.75
31911;BME280;18457;52.432;16.914;2023-03-29T05:45:40;100932.86;;;1.02;60.66
31911;BME280;18457;52.432;16.914;2023-03-29T05:48:12;100934.58;;;1.07;60.70
31911;BME280;18457;52.432;16.914;2023-03-29T05:50:46;100940.20;;;1.12;60.61
31911;BME280;18457;52.432;16.914;2023-03-29T05:53:22;100941.39;;;1.17;60.45
31911;BME280;18457;52.432;16.914;2023-03-29T05:55:54;100944.00;;;1.22;60.53
31911;BME280;18457;52.432;16.914;2023-03-29T05:58:27;100939.17;;;1.30;60.58
31911;BME280;18457;52.432;16.914;2023-03-29T06:01:01;100934.70;;;1.36;60.42
31911;BME280;18457;52.432;16.914;2023-03-29T06:03:56;100929.91;;;1.45;60.37
31911;BME280;18457;52.432;16.914;2023-03-29T06:06:34;100924.73;;;1.53;60.29
31911;BME280;18457;52.432;16.914;2023-03-29T06:09:07;100925.10;;;1.62;60.08
31911;BME280;18457;52.432;16.914;2023-03-29T06:11:42;100923.29;;;1.69;59.95
31911;BME280;18457;52.432;16.914;2023-03-29T06:14:42;100920.92;;;1.75;59.72
31911;BME280;18457;52.432;16.914;2023-03-29T06:17:25;100921.98;;;1.85;59.55
31911;BME280;18457;52.432;16.914;2023-03-29T06:19:58;100924.46;;;1.93;59.72
31911;BME280;18457;52.432;16.914;2023-03-29T06:22:31;100917.59;;;1.97;59.47
31911;BME280;18457;52.432;16.914;2023-03-29T06:25:04;100925.61;;;2.07;59.44
31911;BME280;18457;52.432;16.914;2023-03-29T06:27:37;100918.55;;;2.10;59.54
31911;BME280;18457;52.432;16.914;2023-03-29T06:30:09;100923.95;;;2.22;59.88
31911;BME280;18457;52.432;16.914;2023-03-29T06:32:42;100918.17;;;2.29;60.02
31911;BME280;18457;52.432;16.914;2023-03-29T06:35:30;100915.72;;;2.31;60.01
31911;BME280;18457;52.432;16.914;2023-03-29T06:38:08;100912.43;;;2.37;60.53
31911;BME280;18457;52.432;16.914;2023-03-29T06:41:05;100914.89;;;2.44;60.45
31911;BME280;18457;52.432;16.914;2023-03-29T06:43:56;100912.38;;;2.54;60.33
31911;BME280;18457;52.432;16.914;2023-03-29T06:46:34;100914.13;;;2.64;60.08
31911;BME280;18457;52.432;16.914;2023-03-29T06:49:10;100913.67;;;2.69;59.76
31911;BME280;18457;52.432;16.914;2023-03-29T06:51:51;100911.45;;;2.75;59.86
31911;BME280;18457;52.432;16.914;2023-03-29T06:54:23;100912.27;;;2.81;59.86
31911;BME280;18457;52.432;16.914;2023-03-29T06:57:02;100909.42;;;2.82;59.61
31911;BME280;18457;52.432;16.914;2023-03-29T06:59:36;100912.59;;;2.91;59.21
31911;BME280;18457;52.432;16.914;2023-03-29T07:02:21;100915.90;;;2.97;59.60
31911;BME280;18457;52.432;16.914;2023-03-29T07:04:59;100914.72;;;3.02;59.70
31911;BME280;18457;52.432;16.914;2023-03-29T07:07:40;100912.64;;;3.06;59.65
31911;BME280;18457;52.432;16.914;2023-03-29T07:10:43;100914.44;;;3.07;59.36
31911;BME280;18457;52.432;16.914;2023-03-29T07:13:44;100912.27;;;3.06;59.83
31911;BME280;18457;52.432;16.914;2023-03-29T07:16:20;100911.95;;;3.08;59.60
31911;BME280;18457;52.432;16.914;2023-03-29T07:19:00;100912.52;;;3.11;59.74
31911;BME280;18457;52.432;16.914;2023-03-29T07:21:53;100913.27;;;3.14;59.82
31911;BME280;18457;52.432;16.914;2023-03-29T07:24:34;100911.77;;;3.20;59.36
31911;BME280;18457;52.432;16.914;2023-03-29T07:27:06;100912.52;;;3.23;59.89
31911;BME280;18457;52.432;16.914;2023-03-29T07:29:38;100915.42;;;3.27;60.27
31911;BME280;18457;52.432;16.914;2023-03-29T07:32:10;100900.30;;;3.29;60.15
31911;BME280;18457;52.432;16.914;2023-03-29T07:34:45;100910.64;;;3.43;60.30
31911;BME280;18457;52.432;16.914;2023-03-29T07:37:28;100911.48;;;3.52;60.29
31911;BME280;18457;52.432;16.914;2023-03-29T07:40:00;100905.32;;;3.61;60.51
31911;BME280;18457;52.432;16.914;2023-03-29T07:43:11;100911.70;;;3.72;60.78
31911;BME280;18457;52.432;16.914;2023-03-29T07:45:43;100908.20;;;3.76;60.87
31911;BME280;18457;52.432;16.914;2023-03-29T07:48:16;100912.02;;;3.84;60.91
31911;BME280;18457;52.432;16.914;2023-03-29T07:51:00;100908.90;;;3.92;61.17
31911;BME280;18457;52.432;16.914;2023-03-29T07:53:37;100908.65;;;4.03;60.97
31911;BME280;18457;52.432;16.914;2023-03-29T07:56:17;100907.13;;;4.11;60.79
31911;BME280;18457;52.432;16.914;2023-03-29T07:59:09;100905.45;;;4.22;60.75
31911;BME280;18457;52.432;16.914;2023-03-29T08:01:41;100903.39;;;4.31;60.45
31911;BME280;18457;52.432;16.914;2023-03-29T08:04:25;100906.52;;;4.39;60.29
31911;BME280;18457;52.432;16.914;2023-03-29T08:07:17;100904.62;;;4.48;59.89
31911;BME280;18457;52.432;16.914;2023-03-29T08:10:02;100900.77;;;4.58;59.55
31911;BME280;18457;52.432;16.914;2023-03-29T08:12:50;100899.95;;;4.69;58.88
31911;BME280;18457;52.432;16.914;2023-03-29T08:15:28;100900.71;;;4.77;58.25
31911;BME280;18457;52.432;16.914;2023-03-29T08:18:00;100895.59;;;4.84;57.75
31911;BME280;18457;52.432;16.914;2023-03-29T08:20:33;100892.80;;;4.93;57.28
31911;BME280;18457;52.432;16.914;2023-03-29T08:23:06;100895.75;;;5.07;57.02
31911;BME280;18457;52.432;16.914;2023-03-29T08:25:57;100897.45;;;5.21;56.78
31911;BME280;18457;52.432;16.914;2023-03-29T08:28:29;100890.70;;;5.31;56.05
31911;BME280;18457;52.432;16.914;2023-03-29T08:31:03;100887.34;;;5.42;55.80
31911;BME280;18457;52.432;16.914;2023-03-29T08:33:34;100875.52;;;5.49;55.31
31911;BME280;18457;52.432;16.914;2023-03-29T08:36:26;100877.20;;;5.60;54.42
31911;BME280;18457;52.432;16.914;2023-03-29T08:38:59;100879.55;;;5.66;53.85
31911;BME280;18457;52.432;16.914;2023-03-29T08:41:40;100879.05;;;5.76;53.41
31911;BME280;18457;52.432;16.914;2023-03-29T08:44:31;100872.64;;;5.86;53.49
31911;BME280;18457;52.432;16.914;2023-03-29T08:47:17;100871.24;;;5.99;53.76
31911;BME280;18457;52.432;16.914;2023-03-29T08:49:53;100869.11;;;6.11;53.27
31911;BME280;18457;52.432;16.914;2023-03-29T08:52:35;100867.52;;;6.20;52.96
31911;BME280;18457;52.432;16.914;2023-03-29T08:55:25;100865.72;;;6.24;52.70
31911;BME280;18457;52.432;16.914;2023-03-29T08:58:25;100862.86;;;6.35;52.74
31911;BME280;18457;52.432;16.914;2023-03-29T09:01:01;100863.21;;;6.52;53.11
31911;BME280;18457;52.432;16.914;2023-03-29T09:03:46;100862.31;;;6.61;52.61
31911;BME280;18457;52.432;16.914;2023-03-29T09:06:27;100866.08;;;6.67;51.54
31911;BME280;18457;52.432;16.914;2023-03-29T09:09:13;100864.45;;;6.76;51.52
31911;BME280;18457;52.432;16.914;2023-03-29T09:12:02;100861.92;;;6.82;51.73
31911;BME280;18457;52.432;16.914;2023-03-29T09:14:46;100856.52;;;6.92;52.23
31911;BME280;18457;52.432;16.914;2023-03-29T09:17:30;100859.02;;;6.99;52.32
31911;BME280;18457;52.432;16.914;2023-03-29T09:20:21;100852.89;;;7.12;52.71
31911;BME280;18457;52.432;16.914;2023-03-29T09:22:59;100851.79;;;7.19;52.54
31911;BME280;18457;52.432;16.914;2023-03-29T09:25:49;100847.27;;;7.26;52.66
31911;BME280;18457;52.432;16.914;2023-03-29T09:28:32;100844.20;;;7.28;52.62
31911;BME280;18457;52.432;16.914;2023-03-29T09:31:12;100838.27;;;7.33;52.80
31911;BME280;18457;52.432;16.914;2023-03-29T09:33:51;100838.73;;;7.48;53.21
31911;BME280;18457;52.432;16.914;2023-03-29T09:36:30;100837.44;;;7.53;52.81
31911;BME280;18457;52.432;16.914;2023-03-29T09:39:08;100823.58;;;7.60;52.84
31911;BME280;18457;52.432;16.914;2023-03-29T09:41:48;100827.44;;;7.77;52.97
31911;BME280;18457;52.432;16.914;2023-03-29T09:44:24;100823.98;;;7.82;52.25
31911;BME280;18457;52.432;16.914;2023-03-29T09:47:08;100828.48;;;7.81;52.31
31911;BME280;18457;52.432;16.914;2023-03-29T09:49:48;100812.25;;;7.88;52.67
31911;BME280;18457;52.432;16.914;2023-03-29T09:52:22;100815.90;;;8.07;52.94
31911;BME280;18457;52.432;16.914;2023-03-29T09:55:06;100816.70;;;8.20;52.75
31911;BME280;18457;52.432;16.914;2023-03-29T09:57:51;100825.48;;;8.29;52.39
31911;BME280;18457;52.432;16.914;2023-03-29T10:00:24;100822.95;;;8.30;52.38
31911;BME280;18457;52.432;16.914;2023-03-29T10:02:55;100814.46;;;8.33;52.41
31911;BME280;18457;52.432;16.914;2023-03-29T10:05:38;100807.36;;;8.42;52.19
31911;BME280;18457;52.432;16.914;2023-03-29T10:08:19;100806.42;;;8.47;51.84
31911;BME280;18457;52.432;16.914;2023-03-29T10:10:53;100805.03;;;8.41;51.71
31911;BME280;18457;52.432;16.914;2023-03-29T10:13:30;100791.98;;;8.51;51.91
31911;BME280;18457;52.432;16.914;2023-03-29T10:16:06;100788.50;;;8.58;51.38
31911;BME280;18457;52.432;16.914;2023-03-29T10:18:41;100795.36;;;8.54;50.68
31911;BME280;18457;52.432;16.914;2023-03-29T10:21:15;100790.82;;;8.60;50.19
31911;BME280;18457;52.432;16.914;2023-03-29T10:23:57;100787.02;;;8.78;50.26
31911;BME280;18457;52.432;16.914;2023-03-29T10:26:31;100779.90;;;8.86;50.19
31911;BME280;18457;52.432;16.914;2023-03-29T10:29:07;100777.05;;;8.85;49.44
31911;BME280;18457;52.432;16.914;2023-03-29T10:31:39;100773.61;;;8.85;49.12
31911;BME280;18457;52.432;16.914;2023-03-29T10:34:14;100770.55;;;8.86;49.58
31911;BME280;18457;52.432;16.914;2023-03-29T10:36:54;100770.45;;;8.78;49.73
31911;BME280;18457;52.432;16.914;2023-03-29T10:39:31;100769.84;;;8.84;49.72
31911;BME280;18457;52.432;16.914;2023-03-29T10:42:04;100768.85;;;8.92;49.51
31911;BME280;18457;52.432;16.914;2023-03-29T10:44:41;100763.35;;;9.01;49.28
31911;BME280;18457;52.432;16.914;2023-03-29T10:47:18;100763.15;;;9.17;48.99
31911;BME280;18457;52.432;16.914;2023-03-29T10:49:53;100760.58;;;9.33;47.76
31911;BME280;18457;52.432;16.914;2023-03-29T10:52:27;100754.46;;;9.45;47.14
31911;BME280;18457;52.432;16.914;2023-03-29T10:54:59;100745.00;;;9.51;47.63
31911;BME280;18457;52.432;16.914;2023-03-29T10:57:36;100745.64;;;9.57;47.12
31911;BME280;18457;52.432;16.914;2023-03-29T11:00:16;100742.35;;;9.60;47.47
31911;BME280;18457;52.432;16.914;2023-03-29T11:03:08;100739.48;;;9.59;47.09
31911;BME280;18457;52.432;16.914;2023-03-29T11:05:50;100709.77;;;9.56;47.48
31911;BME280;18457;52.432;16.914;2023-03-29T11:08:36;100737.21;;;9.78;46.89
31911;BME280;18457;52.432;16.914;2023-03-29T11:14:12;100730.81;;;9.83;46.76
31911;BME280;18457;52.432;16.914;2023-03-29T11:16:52;100724.30;;;9.84;46.41
31911;BME280;18457;52.432;16.914;2023-03-29T11:19:54;100722.52;;;9.83;46.33
31911;BME280;18457;52.432;16.914;2023-03-29T11:22:34;100718.02;;;9.83;46.17
31911;BME280;18457;52.432;16.914;2023-03-29T11:25:24;100716.32;;;9.87;45.98
31911;BME280;18457;52.432;16.914;2023-03-29T11:28:04;100708.58;;;9.96;45.87
31911;BME280;18457;52.432;16.914;2023-03-29T11:30:42;100714.51;;;10.10;45.99
31911;BME280;18457;52.432;16.914;2023-03-29T11:33:30;100716.87;;;9.97;45.76
31911;BME280;18457;52.432;16.914;2023-03-29T11:36:08;100707.14;;;10.08;45.90
31911;BME280;18457;52.432;16.914;2023-03-29T11:38:49;100704.57;;;10.11;45.88
31911;BME280;18457;52.432;16.914;2023-03-29T11:41:27;100703.42;;;10.16;45.84
31911;BME280;18457;52.432;16.914;2023-03-29T11:44:04;100698.06;;;9.99;45.61
31911;BME280;18457;52.432;16.914;2023-03-29T11:46:41;100696.95;;;10.01;45.11
31911;BME280;18457;52.432;16.914;2023-03-29T11:49:20;100687.98;;;10.09;45.06
31911;BME280;18457;52.432;16.914;2023-03-29T11:51:57;100682.25;;;10.18;44.88
31911;BME280;18457;52.432;16.914;2023-03-29T11:54:37;100677.27;;;10.24;44.93
31911;BME280;18457;52.432;16.914;2023-03-29T11:57:17;100672.55;;;10.24;45.00
31911;BME280;18457;52.432;16.914;2023-03-29T11:59:55;100672.52;;;10.17;44.26
31911;BME280;18457;52.432;16.914;2023-03-29T12:02:45;100664.30;;;10.31;44.02
31911;BME280;18457;52.432;16.914;2023-03-29T12:05:22;100653.70;;;10.38;43.95
31911;BME280;18457;52.432;16.914;2023-03-29T12:08:00;100654.99;;;10.45;43.43
31911;BME280;18457;52.432;16.914;2023-03-29T12:10:36;100653.16;;;10.56;43.41
31911;BME280;18457;52.432;16.914;2023-03-29T12:13:14;100644.35;;;10.63;43.37
31911;BME280;18457;52.432;16.914;2023-03-29T12:15:54;100638.36;;;10.81;43.00
31911;BME280;18457;52.432;16.914;2023-03-29T12:18:33;100636.09;;;11.02;43.12
31911;BME280;18457;52.432;16.914;2023-03-29T12:21:11;100632.44;;;11.20;42.77
31911;BME280;18457;52.432;16.914;2023-03-29T12:23:47;100632.70;;;11.32;42.14
31911;BME280;18457;52.432;16.914;2023-03-29T12:26:31;100634.50;;;11.39;42.09
31911;BME280;18457;52.432;16.914;2023-03-29T12:29:18;100636.38;;;11.44;41.64
31911;BME280;18457;52.432;16.914;2023-03-29T12:32:12;100632.04;;;11.44;41.23
31911;BME280;18457;52.432;16.914;2023-03-29T12:35:13;100625.16;;;11.37;41.57
31911;BME280;18457;52.432;16.914;2023-03-29T12:38:14;100624.85;;;11.34;42.06
31911;BME280;18457;52.432;16.914;2023-03-29T12:41:16;100618.16;;;11.34;42.02
31911;BME280;18457;52.432;16.914;2023-03-29T12:44:10;100611.66;;;11.57;42.15
31911;BME280;18457;52.432;16.914;2023-03-29T12:46:59;100604.45;;;11.78;42.50
31911;BME280;18457;52.432;16.914;2023-03-29T12:49:34;100595.84;;;11.95;41.82
31911;BME280;18457;52.432;16.914;2023-03-29T12:52:17;100601.21;;;11.98;40.89
31911;BME280;18457;52.432;16.914;2023-03-29T12:54:57;100601.99;;;11.89;40.88
31911;BME280;18457;52.432;16.914;2023-03-29T12:57:40;100589.11;;;11.90;41.25
31911;BME280;18457;52.432;16.914;2023-03-29T13:00:21;100593.38;;;11.99;41.64
31911;BME280;18457;52.432;16.914;2023-03-29T13:03:02;100597.22;;;11.85;41.34
31911;BME280;18457;52.432;16.914;2023-03-29T13:05:36;100589.02;;;11.65;41.54
31911;BME280;18457;52.432;16.914;2023-03-29T13:08:25;100586.93;;;11.84;42.30
31911;BME280;18457;52.432;16.914;2023-03-29T13:10:57;100595.70;;;11.95;41.22
31911;BME280;18457;52.432;16.914;2023-03-29T13:13:33;100592.45;;;11.87;40.79
31911;BME280;18457;52.432;16.914;2023-03-29T13:16:16;100585.27;;;11.70;40.75
31911;BME280;18457;52.432;16.914;2023-03-29T13:19:06;100585.60;;;11.86;40.91
31911;BME280;18457;52.432;16.914;2023-03-29T13:21:49;100565.33;;;12.12;41.17
31911;BME280;18457;52.432;16.914;2023-03-29T13:27:26;100559.95;;;12.54;40.81
31911;BME280;18457;52.432;16.914;2023-03-29T13:30:21;100561.27;;;12.52;40.92
31911;BME280;18457;52.432;16.914;2023-03-29T13:33:16;100558.54;;;12.53;41.25
31911;BME280;18457;52.432;16.914;2023-03-29T13:35:58;100570.48;;;12.53;41.07
31911;BME280;18457;52.432;16.914;2023-03-29T13:38:44;100565.55;;;12.36;40.87
31911;BME280;18457;52.432;16.914;2023-03-29T13:41:30;100556.08;;;12.50;41.21
31911;BME280;18457;52.432;16.914;2023-03-29T13:44:03;100561.23;;;12.71;40.95
31911;BME280;18457;52.432;16.914;2023-03-29T13:46:40;100556.23;;;12.86;40.59
31911;BME280;18457;52.432;16.914;2023-03-29T13:49:19;100547.61;;;12.90;41.00
31911;BME280;18457;52.432;16.914;2023-03-29T13:52:09;100547.83;;;12.94;41.09
31911;BME280;18457;52.432;16.914;2023-03-29T13:54:50;100545.53;;;12.63;41.12
31911;BME280;18457;52.432;16.914;2023-03-29T13:57:31;100544.60;;;12.52;41.39